Terminal Aerodrome Forecast
Issued by NWS Raleigh/Durham, NC

Home | Current Version | Previous Version | Text Only | Print | Product List | Glossary On
Versions: 1 2 3 4 5 6 7 8 9 10 11 12 13 14 15 16 17 18 19 20 21 22 23 24 25 26 27 28 29 30 31 32 33 34 35 36 37 38 39 40
085
FTUS42 KRAH 211919 AAA
TAFGSO
TAF AMD
KGSO 211919Z 2119/2218 VRB07KT P6SM VCTS SCT030CB SCT200
      TEMPO 2119/2121 3SM TSRA BR BKN020CB OVC050
     FM212100 16006KT P6SM VCTS BKN045CB BKN180
     FM220100 VRB04KT P6SM FEW060 BKN180
      TEMPO 2208/2212 5SM BR
     FM221400 23005KT P6SM SCT250=

USA.gov is the U.S. government's official web portal to all federal, state and local government web resources and services.